Time;durP1;ratioP1;P1;durP2;ratioP2;P2;SDS_P1;SDS_P2;PMS_P1;PMS_P2;Temp;Humidity;BMP_temperature;BMP_pressure;BME280_temperature;BME280_humidity;BME280_pressure;Samples;Min_cycle;Max_cycle;Signal;HPM_P1;HPM_P2
2023/06/24 00:00:40;;;;;;;43.87;37.70;;;18.80;99.90;;;;;;4928497;29;20441;-83
2023/06/24 00:03:07;;;;;;;44.27;38.40;;;18.90;99.90;;;;;;4942462;29;20513;-83
2023/06/24 00:05:35;;;;;;;48.13;39.93;;;18.40;99.90;;;;;;4945523;29;20450;-83
2023/06/24 00:08:02;;;;;;;46.13;37.83;;;18.40;99.90;;;;;;4956947;29;20427;-84
2023/06/24 00:10:31;;;;;;;49.27;42.90;;;18.30;99.90;;;;;;4951941;28;20450;-85
2023/06/24 00:13:03;;;;;;;47.23;39.60;;;18.50;99.90;;;;;;4944466;29;20427;-84
2023/06/24 00:15:30;;;;;;;48.30;43.00;;;18.90;99.90;;;;;;4941756;29;20646;-81
2023/06/24 00:18:05;;;;;;;46.93;41.87;;;18.10;99.90;;;;;;4925116;29;20446;-88
2023/06/24 00:20:35;;;;;;;53.47;40.47;;;18.40;99.90;;;;;;4937997;29;20570;-85
2023/06/24 00:23:05;;;;;;;47.00;36.00;;;18.30;99.90;;;;;;4939722;29;20472;-84
2023/06/24 00:25:32;;;;;;;43.23;37.80;;;18.20;99.90;;;;;;4939157;29;20912;-85
2023/06/24 00:28:02;;;;;;;42.80;37.67;;;18.20;99.90;;;;;;4941514;29;20458;-86
2023/06/24 00:30:31;;;;;;;39.63;34.50;;;18.10;99.90;;;;;;4925741;29;20458;-85
2023/06/24 00:32:58;;;;;;;42.67;36.50;;;18.10;99.90;;;;;;4953414;29;20448;-83
2023/06/24 00:35:28;;;;;;;43.20;36.27;;;17.70;99.90;;;;;;4943426;29;20687;-85
2023/06/24 00:37:58;;;;;;;41.20;36.57;;;18.00;99.90;;;;;;4926533;29;21044;-87
2023/06/24 00:40:27;;;;;;;44.90;35.70;;;18.00;99.90;;;;;;4944936;29;20474;-83
2023/06/24 00:42:55;;;;;;;40.97;35.53;;;18.00;99.90;;;;;;4944863;29;20454;-85
2023/06/24 00:45:25;;;;;;;39.73;34.53;;;17.90;99.90;;;;;;4933553;29;20828;-86
2023/06/24 00:47:55;;;;;;;38.97;34.33;;;17.90;99.90;;;;;;4922191;29;20433;-85
2023/06/24 00:50:24;;;;;;;41.53;33.83;;;17.90;99.90;;;;;;4934426;29;20433;-87
2023/06/24 00:52:51;;;;;;;37.57;32.37;;;17.80;99.90;;;;;;4940619;28;20462;-89
2023/06/24 00:55:20;;;;;;;35.63;31.47;;;17.70;99.90;;;;;;4942549;29;20558;-83
2023/06/24 00:57:52;;;;;;;32.43;29.07;;;17.80;99.90;;;;;;4943309;29;20501;-84
2023/06/24 01:00:22;;;;;;;39.37;31.77;;;17.80;99.90;;;;;;4942883;29;20496;-80
2023/06/24 01:02:52;;;;;;;34.90;29.93;;;18.30;99.90;;;;;;4942734;29;20455;-84
2023/06/24 01:05:23;;;;;;;38.10;33.80;;;17.80;99.90;;;;;;4953929;29;20404;-84
2023/06/24 01:07:55;;;;;;;33.07;29.20;;;17.80;99.90;;;;;;4958003;29;20457;-88
2023/06/24 01:10:24;;;;;;;32.97;28.60;;;17.80;99.90;;;;;;4963216;28;20445;-83
2023/06/24 01:12:51;;;;;;;31.40;28.20;;;17.80;99.90;;;;;;4937663;29;20460;-84
2023/06/24 01:15:28;;;;;;;33.43;26.50;;;17.70;99.90;;;;;;4934302;29;20537;-83
2023/06/24 01:18:20;;;;;;;26.20;23.53;;;17.70;99.90;;;;;;4954072;29;20480;-85
2023/06/24 01:21:03;;;;;;;27.47;24.57;;;17.60;99.90;;;;;;4934641;29;20561;-85
2023/06/24 01:23:48;;;;;;;25.90;23.40;;;17.60;99.90;;;;;;4962421;29;20415;-83
2023/06/24 01:26:24;;;;;;;27.53;24.73;;;17.60;99.90;;;;;;4946084;29;20438;-88
2023/06/24 01:29:21;;;;;;;22.50;20.40;;;17.70;99.90;;;;;;4946221;29;20442;-82
2023/06/24 01:32:28;;;;;;;14.50;13.00;;;17.70;99.90;;;;;;4947059;29;20821;-87
2023/06/24 01:35:16;;;;;;;12.07;10.87;;;17.50;99.90;;;;;;4940766;29;20492;-84
2023/06/24 01:37:51;;;;;;;11.70;10.70;;;17.30;99.90;;;;;;4945453;29;20512;-85
2023/06/24 01:40:28;;;;;;;10.57;9.67;;;17.20;99.90;;;;;;4930982;29;20531;-86
2023/06/24 01:42:59;;;;;;;10.43;9.53;;;17.10;99.90;;;;;;4947304;29;20429;-88
2023/06/24 01:45:41;;;;;;;9.97;9.00;;;17.00;99.90;;;;;;4933334;29;20514;-85
2023/06/24 01:48:13;;;;;;;11.90;9.47;;;16.90;99.90;;;;;;4946423;29;20432;-85
2023/06/24 01:51:28;;;;;;;11.97;10.80;;;16.50;99.90;;;;;;4946536;29;20460;-88
2023/06/24 01:54:07;;;;;;;11.57;10.50;;;16.70;99.90;;;;;;4942401;29;20456;-85
2023/06/24 01:56:36;;;;;;;13.10;11.70;;;16.70;99.90;;;;;;4930768;29;20528;-85
2023/06/24 01:59:04;;;;;;;14.00;12.70;;;16.90;99.90;;;;;;4945632;29;20532;-86
2023/06/24 02:01:37;;;;;;;13.10;11.37;;;17.10;99.90;;;;;;4948334;29;20729;-87
2023/06/24 02:04:08;;;;;;;16.43;11.63;;;16.70;99.90;;;;;;4949385;29;20510;-88
2023/06/24 02:06:39;;;;;;;14.20;12.73;;;16.50;99.90;;;;;;4936958;29;20505;-85
2023/06/24 02:09:08;;;;;;;13.90;12.60;;;16.50;99.90;;;;;;4957114;28;20405;-81
2023/06/24 02:11:36;;;;;;;14.10;12.60;;;16.50;99.90;;;;;;4956414;28;20437;-87
2023/06/24 02:14:05;;;;;;;14.40;12.80;;;16.50;99.90;;;;;;4949409;29;20540;-85
2023/06/24 02:16:35;;;;;;;23.20;13.67;;;16.40;99.90;;;;;;4947690;29;20460;-87
2023/06/24 02:19:04;;;;;;;14.93;12.63;;;16.20;99.90;;;;;;4931251;29;20424;-86
2023/06/24 02:21:35;;;;;;;16.20;14.63;;;16.20;99.90;;;;;;4939607;29;21081;-86
2023/06/24 02:24:03;;;;;;;13.27;12.10;;;15.90;99.90;;;;;;4931741;29;20446;-85
2023/06/24 02:26:33;;;;;;;15.13;13.53;;;15.90;99.90;;;;;;4948452;29;20428;-86
2023/06/24 02:29:00;;;;;;;14.73;13.20;;;15.80;99.90;;;;;;4949067;29;20513;-89
2023/06/24 02:31:29;;;;;;;18.33;14.60;;;15.80;99.90;;;;;;4954384;29;20452;-87
2023/06/24 02:33:58;;;;;;;17.50;14.70;;;16.30;99.90;;;;;;4955875;29;20437;-88
2023/06/24 02:36:27;;;;;;;19.57;14.23;;;15.10;99.90;;;;;;4947189;29;20461;-85
2023/06/24 02:38:54;;;;;;;15.93;14.23;;;15.80;99.90;;;;;;4949399;29;20442;-83
2023/06/24 02:41:25;;;;;;;21.93;14.73;;;15.60;99.90;;;;;;4937907;29;20552;-87
2023/06/24 02:43:52;;;;;;;18.67;15.33;;;15.40;99.90;;;;;;4938648;29;20513;-85
2023/06/24 02:46:22;;;;;;;14.63;12.67;;;15.60;99.90;;;;;;4957309;28;20461;-87
2023/06/24 02:48:50;;;;;;;14.73;13.27;;;15.50;99.90;;;;;;5121108;23;20503;-87
2023/06/24 02:51:20;;;;;;;17.10;15.10;;;15.50;99.90;;;;;;4935129;29;20500;-87
2023/06/24 02:53:48;;;;;;;16.87;15.27;;;15.80;99.90;;;;;;4951648;29;20449;-85
2023/06/24 02:56:20;;;;;;;14.60;13.27;;;15.40;99.90;;;;;;4934788;29;20450;-83
2023/06/24 02:58:52;;;;;;;16.63;13.60;;;15.40;99.90;;;;;;4949387;29;20506;-87
2023/06/24 03:01:24;;;;;;;13.20;11.87;;;15.30;99.90;;;;;;4933377;29;20508;-87
2023/06/24 03:03:55;;;;;;;13.13;11.87;;;15.60;99.90;;;;;;4950813;29;20524;-86
2023/06/24 03:06:23;;;;;;;13.88;11.80;;;15.20;99.90;;;;;;4919890;29;20441;-87
2023/06/24 03:08:52;;;;;;;14.10;12.70;;;15.30;99.90;;;;;;4925307;29;20530;-87
2023/06/24 03:11:19;;;;;;;12.77;11.47;;;15.10;99.90;;;;;;4934744;29;20468;-87
2023/06/24 03:13:47;;;;;;;12.73;11.55;;;15.40;99.90;;;;;;4933738;29;20454;-89
2023/06/24 03:16:15;;;;;;;13.73;11.87;;;15.10;99.90;;;;;;4950344;29;20203;-85
2023/06/24 03:18:46;;;;;;;12.70;11.50;;;16.00;99.90;;;;;;4934051;29;20450;-83
2023/06/24 03:21:18;;;;;;;14.95;12.15;;;15.10;99.90;;;;;;4937153;29;20470;-88
2023/06/24 03:23:53;;;;;;;14.53;13.10;;;15.10;99.90;;;;;;4965635;28;20215;-87
2023/06/24 03:26:38;;;;;;;15.80;12.95;;;15.40;99.90;;;;;;4945051;29;20525;-86
2023/06/24 03:29:08;;;;;;;19.17;14.63;;;15.20;99.90;;;;;;4939357;29;20214;-88
2023/06/24 03:31:43;;;;;;;15.60;13.90;;;15.20;99.90;;;;;;4931395;29;20239;-87
2023/06/24 03:34:13;;;;;;;15.38;13.90;;;15.90;99.90;;;;;;4946504;29;20514;-86
2023/06/24 03:36:41;;;;;;;19.05;15.10;;;16.30;99.90;;;;;;5344203;23;20329;-83
2023/06/24 03:39:08;;;;;;;15.83;13.77;;;15.80;99.90;;;;;;4963199;28;20219;-88
2023/06/24 03:41:45;;;;;;;14.70;13.30;;;15.40;99.90;;;;;;4956855;29;20460;-87
2023/06/24 03:44:13;;;;;;;20.15;13.93;;;15.30;99.90;;;;;;4966285;28;20540;-85
2023/06/24 03:46:40;;;;;;;17.70;15.10;;;16.90;99.90;;;;;;4970079;28;20686;-87
2023/06/24 03:49:08;;;;;;;15.20;13.80;;;16.90;99.90;;;;;;4960428;28;20457;-88
2023/06/24 03:51:36;;;;;;;13.63;12.23;;;15.30;99.90;;;;;;4960725;29;20247;-85
2023/06/24 03:54:07;;;;;;;17.23;12.07;;;16.20;99.90;;;;;;4958547;29;20484;-88
2023/06/24 03:56:37;;;;;;;14.32;12.63;;;15.40;99.90;;;;;;4958515;28;20215;-87
2023/06/24 03:59:06;;;;;;;13.75;11.82;;;16.50;99.90;;;;;;4945774;28;20237;-88
2023/06/24 04:01:36;;;;;;;14.52;13.13;;;15.30;99.90;;;;;;4952990;28;20290;-86
2023/06/24 04:04:07;;;;;;;12.67;11.37;;;15.30;99.90;;;;;;5016009;23;20219;-87
2023/06/24 04:06:40;;;;;;;14.93;11.83;;;15.20;99.90;;;;;;4966601;28;20445;-92
2023/06/24 04:09:08;;;;;;;13.75;12.38;;;15.40;99.90;;;;;;4959606;28;20456;-86
2023/06/24 04:11:41;;;;;;;11.70;10.13;;;14.90;99.90;;;;;;4952456;29;20192;-86
2023/06/24 04:14:09;;;;;;;11.52;10.55;;;15.20;99.90;;;;;;4973002;28;20453;-89
2023/06/24 04:16:40;;;;;;;11.20;10.00;;;15.20;99.90;;;;;;5051084;23;20295;-89
2023/06/24 04:19:11;;;;;;;10.50;8.73;;;15.10;99.90;;;;;;4948307;29;20537;-87
2023/06/24 04:21:39;;;;;;;10.03;9.03;;;15.90;99.90;;;;;;4925894;29;20508;-88
2023/06/24 04:24:24;;;;;;;9.38;8.40;;;16.10;99.90;;;;;;4925646;29;20433;-87
2023/06/24 04:26:55;;;;;;;9.33;8.33;;;15.50;99.90;;;;;;4946850;29;20235;-85
2023/06/24 04:29:25;;;;;;;9.18;8.38;;;16.40;99.90;;;;;;4928065;29;20443;-89
2023/06/24 04:31:53;;;;;;;10.97;9.80;;;15.80;99.90;;;;;;4953340;28;20192;-81
2023/06/24 04:34:21;;;;;;;10.95;9.73;;;15.00;99.90;;;;;;4951313;28;20489;-86
2023/06/24 04:36:54;;;;;;;8.60;7.80;;;15.00;99.90;;;;;;4946305;29;20203;-87
2023/06/24 04:40:04;;;;;;;9.20;8.40;;;15.20;99.90;;;;;;4931221;29;20192;-87
2023/06/24 04:43:01;;;;;;;10.00;8.53;;;15.00;99.90;;;;;;4947322;29;20219;-82
2023/06/24 04:45:46;;;;;;;10.03;8.63;;;15.10;99.90;;;;;;4852086;29;20530;-87
2023/06/24 04:48:15;;;;;;;10.03;9.03;;;15.80;99.90;;;;;;4949710;29;20437;-87
2023/06/24 04:50:45;;;;;;;10.20;9.27;;;15.20;99.90;;;;;;4933101;29;20446;-86
2023/06/24 04:53:15;;;;;;;16.20;8.50;;;16.10;99.90;;;;;;4956833;29;20211;-85
2023/06/24 04:55:42;;;;;;;12.40;9.75;;;15.40;99.90;;;;;;4948135;29;20218;-89
2023/06/24 04:58:22;;;;;;;9.98;8.98;;;15.40;99.90;;;;;;4947656;29;20337;-86
2023/06/24 05:00:56;;;;;;;10.77;8.67;;;14.90;99.90;;;;;;4954357;29;20270;-85
2023/06/24 05:03:26;;;;;;;10.13;8.27;;;15.00;99.90;;;;;;4936673;28;20484;-84
2023/06/24 05:05:53;;;;;;;9.40;8.30;;;13.90;99.90;;;;;;4951311;29;20269;-85
2023/06/24 05:08:21;;;;;;;9.80;8.60;;;15.50;99.90;;;;;;4935749;29;20222;-84
2023/06/24 05:10:55;;;;;;;10.15;9.13;;;15.70;99.90;;;;;;4952751;29;20445;-89
2023/06/24 05:13:36;;;;;;;9.57;8.55;;;15.70;99.90;;;;;;4947808;29;20239;-88
2023/06/24 05:16:08;;;;;;;10.13;9.05;;;15.80;99.90;;;;;;4931838;29;20303;-86
2023/06/24 05:18:40;;;;;;;11.43;10.35;;;16.00;99.90;;;;;;4931445;29;20223;-90
2023/06/24 05:21:31;;;;;;;9.50;8.05;;;15.80;99.90;;;;;;4947188;29;20239;-87
2023/06/24 05:24:24;;;;;;;10.77;8.82;;;15.60;99.90;;;;;;4945130;29;20215;-88
2023/06/24 05:26:52;;;;;;;12.65;8.85;;;14.80;99.90;;;;;;4954827;29;20228;-85
2023/06/24 05:29:23;;;;;;;11.00;9.90;;;14.60;99.90;;;;;;4952849;28;20267;-88
2023/06/24 05:31:50;;;;;;;10.88;9.60;;;13.90;99.90;;;;;;4946484;29;20460;-89
2023/06/24 05:34:18;;;;;;;13.32;9.52;;;16.10;99.90;;;;;;4945769;29;20208;-85
2023/06/24 05:36:45;;;;;;;9.32;8.32;;;16.00;99.90;;;;;;4912256;29;20381;-89
2023/06/24 05:39:13;;;;;;;9.82;8.68;;;15.70;99.90;;;;;;4945802;29;20271;-85
2023/06/24 05:41:49;;;;;;;10.40;9.43;;;14.40;99.90;;;;;;4947872;29;20227;-89
2023/06/24 05:44:20;;;;;;;9.02;8.23;;;14.90;99.90;;;;;;4944608;29;20210;-85
2023/06/24 05:46:47;;;;;;;8.98;8.25;;;16.30;99.90;;;;;;4946132;29;20234;-88
2023/06/24 05:49:14;;;;;;;14.55;8.98;;;14.30;99.90;;;;;;4945521;29;20504;-85
2023/06/24 05:51:42;;;;;;;10.98;10.00;;;14.90;99.90;;;;;;4944029;29;20218;-80
2023/06/24 05:54:08;;;;;;;10.57;9.55;;;15.00;99.90;;;;;;4943933;29;20216;-84
2023/06/24 05:56:37;;;;;;;9.05;8.05;;;14.50;99.90;;;;;;4944226;29;20420;-82
2023/06/24 05:59:07;;;;;;;11.48;8.50;;;15.10;99.90;;;;;;4942777;29;20222;-81
2023/06/24 06:01:34;;;;;;;8.73;7.93;;;15.20;99.90;;;;;;4925681;29;20564;-87
2023/06/24 06:04:05;;;;;;;9.52;8.57;;;15.60;99.90;;;;;;4946532;29;20318;-86
2023/06/24 06:06:32;;;;;;;12.23;8.70;;;15.30;99.90;;;;;;4937805;29;20497;-88
2023/06/24 06:09:09;;;;;;;11.07;9.15;;;15.40;99.90;;;;;;4951688;29;20200;-83
2023/06/24 06:11:39;;;;;;;10.20;8.80;;;17.50;99.90;;;;;;4950278;29;20223;-87
2023/06/24 06:14:09;;;;;;;8.90;8.10;;;17.60;99.90;;;;;;4948161;29;20204;-85
2023/06/24 06:16:40;;;;;;;9.17;8.20;;;17.30;99.90;;;;;;4948649;29;20223;-85
2023/06/24 06:19:28;;;;;;;9.67;8.60;;;17.60;99.90;;;;;;4946082;29;20438;-86
2023/06/24 06:22:19;;;;;;;;;;;;;;;;;;;;;
2023/06/24 06:25:06;;;;;;;10.80;9.87;;;15.80;99.90;;;;;;4953656;28;20409;-88
2023/06/24 06:27:37;;;;;;;10.53;9.43;;;16.30;99.90;;;;;;4953049;28;20576;-90
2023/06/24 06:32:47;;;;;;;10.27;9.37;;;16.20;99.90;;;;;;5306110;23;20476;-84
2023/06/24 06:37:54;;;;;;;11.50;10.43;;;16.40;99.90;;;;;;4949933;28;20469;-88
2023/06/24 06:40:31;;;;;;;12.80;10.73;;;16.90;99.90;;;;;;4998629;23;20851;-84
2023/06/24 06:43:02;;;;;;;12.33;10.93;;;17.20;99.90;;;;;;4936916;29;20442;-84
2023/06/24 06:45:30;;;;;;;11.20;10.03;;;16.80;99.90;;;;;;4960654;28;20442;-86
2023/06/24 06:48:01;;;;;;;12.90;11.70;;;17.90;99.90;;;;;;4934062;29;20490;-87
2023/06/24 06:50:37;;;;;;;13.90;10.83;;;15.20;99.90;;;;;;5144830;23;20600;-87
2023/06/24 06:53:05;;;;;;;10.00;9.20;;;16.40;99.90;;;;;;4951389;28;20477;-86
2023/06/24 06:55:47;;;;;;;;;;;;;;;;;;;;;
2023/06/24 06:58:17;;;;;;;12.10;10.90;;;17.80;99.90;;;;;;5253639;23;20505;-88
2023/06/24 07:00:45;;;;;;;12.53;11.23;;;15.50;99.90;;;;;;4952772;28;20553;-87
2023/06/24 07:03:25;;;;;;;12.17;11.00;;;18.00;99.90;;;;;;4950875;28;20476;-87
2023/06/24 07:05:55;;;;;;;15.03;12.63;;;16.90;99.90;;;;;;4933531;29;20509;-87
2023/06/24 07:08:41;;;;;;;14.47;11.57;;;17.10;99.90;;;;;;4938256;28;20432;-87
2023/06/24 07:11:12;;;;;;;11.53;10.50;;;17.20;99.90;;;;;;4951723;28;20455;-86
2023/06/24 07:13:50;;;;;;;12.43;11.33;;;17.10;99.90;;;;;;4950102;29;20482;-90
2023/06/24 07:16:18;;;;;;;12.23;11.00;;;18.80;99.90;;;;;;4927174;29;20502;-86
2023/06/24 07:18:52;;;;;;;11.90;10.70;;;17.00;99.90;;;;;;4949472;28;20509;-88
2023/06/24 07:26:25;;;;;;;14.57;10.63;;;17.20;99.90;;;;;;4960367;28;20549;-88
2023/06/24 07:28:53;;;;;;;11.80;10.70;;;17.40;99.90;;;;;;4939843;29;20625;-86
2023/06/24 07:34:19;;;;;;;13.20;11.53;;;17.40;99.90;;;;;;5246192;23;20486;-91
2023/06/24 07:42:05;;;;;;;12.10;10.90;;;17.90;99.90;;;;;;4947121;28;20549;-87
2023/06/24 07:44:42;;;;;;;13.97;11.80;;;17.80;99.90;;;;;;5053351;23;20482;-85
2023/06/24 07:47:34;;;;;;;12.57;11.37;;;17.90;99.90;;;;;;5085101;23;20528;-87
2023/06/24 07:50:10;;;;;;;14.93;13.33;;;18.10;99.90;;;;;;4931306;29;20451;-86
2023/06/24 07:53:07;;;;;;;14.50;13.10;;;17.60;99.90;;;;;;5272045;23;20494;-85
2023/06/24 08:06:25;;;;;;;14.13;12.70;;;19.00;99.90;;;;;;5577957;23;21712;-88
2023/06/24 08:08:56;;;;;;;16.30;13.37;;;19.60;99.90;;;;;;5460901;23;20553;-89
2023/06/24 08:11:24;;;;;;;14.77;13.27;;;19.70;99.90;;;;;;5276546;23;20493;-88
2023/06/24 08:14:03;;;;;;;13.73;12.43;;;20.80;99.90;;;;;;5011075;23;20464;-85
2023/06/24 08:22:59;;;;;;;14.43;13.13;;;20.10;99.90;;;;;;4924927;23;20484;-89
2023/06/24 08:25:34;;;;;;;13.43;12.07;;;20.20;99.90;;;;;;4910669;29;20422;-85
2023/06/24 08:31:12;;;;;;;13.83;12.53;;;20.50;99.90;;;;;;5513483;23;20480;-88
2023/06/24 08:34:08;;;;;;;;;;;;;;;;;;;;;
2023/06/24 08:39:29;;;;;;;15.37;13.97;;;21.00;99.90;;;;;;5546801;23;20422;-87
2023/06/24 08:47:14;;;;;;;14.90;11.87;;;21.20;99.90;;;;;;5335010;23;20444;-87
2023/06/24 08:50:08;;;;;;;14.60;13.30;;;21.60;99.90;;;;;;4986594;23;20460;-86
2023/06/24 08:55:37;;;;;;;;;;;;;;;;;;;;;
2023/06/24 08:58:30;;;;;;;;;;;;;;;;;;;;;
2023/06/24 09:01:32;;;;;;;;;;;;;;;;;;;;;
2023/06/24 09:04:29;;;;;;;14.57;12.90;;;20.10;99.90;;;;;;4942918;29;20413;-87
2023/06/24 09:07:44;;;;;;;13.90;12.50;;;20.30;99.90;;;;;;4941537;29;20632;-88
2023/06/24 09:11:21;;;;;;;;;;;;;;;;;;;;;
2023/06/24 09:14:50;;;;;;;15.20;13.77;;;20.10;99.90;;;;;;4865329;29;20540;-86
2023/06/24 09:18:01;;;;;;;16.43;14.87;;;21.00;99.90;;;;;;4870484;29;20412;-86
2023/06/24 09:21:09;;;;;;;15.03;13.60;;;19.90;99.90;;;;;;4867085;29;20451;-88
2023/06/24 09:23:59;;;;;;;15.70;14.20;;;19.60;99.90;;;;;;4844598;29;20665;-82
2023/06/24 09:29:35;;;;;;;16.23;13.87;;;20.30;99.90;;;;;;5059411;23;20477;-88
2023/06/24 09:32:34;;;;;;;14.43;12.93;;;20.70;99.90;;;;;;5516130;23;20483;-81
2023/06/24 09:35:03;;;;;;;15.43;13.93;;;20.90;99.90;;;;;;4943711;29;20514;-81
2023/06/24 09:37:33;;;;;;;14.00;12.60;;;21.20;99.90;;;;;;4946097;28;20423;-88
2023/06/24 09:51:09;;;;;;;14.60;12.60;;;22.30;99.90;;;;;;5072968;23;20522;-85
2023/06/24 09:53:44;;;;;;;15.33;13.37;;;22.90;99.90;;;;;;4930518;29;20462;-86
2023/06/24 09:56:18;;;;;;;12.30;11.20;;;23.40;99.90;;;;;;4945258;29;20488;-84
2023/06/24 09:58:46;;;;;;;13.50;12.20;;;23.50;99.90;;;;;;4930494;29;20458;-83
2023/06/24 10:01:32;;;;;;;14.77;13.20;;;23.30;99.90;;;;;;5117259;23;20529;-86
2023/06/24 10:04:03;;;;;;;13.40;12.07;;;23.10;99.90;;;;;;4925390;29;20440;-87
2023/06/24 10:06:36;;;;;;;15.57;14.00;;;23.40;99.90;;;;;;4923917;29;20458;-87
2023/06/24 10:09:08;;;;;;;13.93;12.53;;;23.30;99.90;;;;;;4921885;29;20420;-85
2023/06/24 10:11:43;;;;;;;16.23;14.67;;;23.30;99.90;;;;;;4924219;29;20776;-84
2023/06/24 10:14:52;;;;;;;13.50;12.27;;;23.00;99.90;;;;;;4926194;29;20504;-88
2023/06/24 10:17:40;;;;;;;18.17;12.07;;;23.60;99.90;;;;;;4927754;29;20451;-89
2023/06/24 10:56:46;;;;;;;11.20;10.20;;;24.40;99.90;;;;;;5450441;23;20422;-88
2023/06/24 11:07:43;;;;;;;11.63;10.53;;;24.00;99.90;;;;;;5162552;23;20488;-89
2023/06/24 11:13:37;;;;;;;9.30;8.40;;;25.20;99.90;;;;;;5054630;23;20575;-91
2023/06/24 11:16:10;;;;;;;9.37;8.57;;;24.90;99.90;;;;;;4923883;29;20978;-87
2023/06/24 11:18:48;;;;;;;10.03;9.03;;;25.50;99.90;;;;;;4943367;29;20458;-88
2023/06/24 11:21:52;;;;;;;;;;;;;;;;;;;;;
2023/06/24 11:24:36;;;;;;;7.50;6.80;;;26.60;99.90;;;;;;4944134;29;20449;-88
2023/06/24 11:27:12;;;;;;;8.80;8.13;;;25.60;99.90;;;;;;4945129;29;20438;-89
2023/06/24 11:29:58;;;;;;;;;;;;;;;;;;;;;
2023/06/24 11:32:47;;;;;;;9.07;8.17;;;26.20;99.90;;;;;;4949341;29;20428;-84
2023/06/24 11:35:41;;;;;;;8.53;7.83;;;23.90;99.90;;;;;;4929703;29;20424;-89
2023/06/24 11:38:36;;;;;;;9.40;7.70;;;24.20;99.90;;;;;;4945842;28;20454;-88
2023/06/24 11:41:32;;;;;;;;;;;;;;;;;;;;;
2023/06/24 11:44:13;;;;;;;12.10;7.90;;;24.70;99.90;;;;;;5036109;23;20560;-87
2023/06/24 11:49:37;;;;;;;;;;;;;;;;;;;;;
2023/06/24 11:52:17;;;;;;;8.23;7.40;;;24.10;99.90;;;;;;5014506;23;20844;-89
2023/06/24 11:54:51;;;;;;;9.40;8.40;;;24.20;99.90;;;;;;4950732;28;20501;-88
2023/06/24 11:57:55;;;;;;;9.10;8.30;;;24.60;99.90;;;;;;4950871;29;20456;-88
2023/06/24 12:08:41;;;;;;;8.30;7.50;;;24.60;99.90;;;;;;5947684;23;20658;-85
2023/06/24 12:11:22;;;;;;;8.50;7.70;;;24.90;99.90;;;;;;5123486;23;20663;-89
2023/06/24 12:14:00;;;;;;;9.30;8.60;;;25.20;99.90;;;;;;4909409;29;20486;-87
2023/06/24 12:16:34;;;;;;;10.90;9.80;;;25.30;99.90;;;;;;4931818;29;20426;-88
2023/06/24 12:19:10;;;;;;;9.70;8.80;;;25.00;99.90;;;;;;4924599;29;20450;-87
2023/06/24 12:21:41;;;;;;;8.37;7.67;;;24.30;99.90;;;;;;4909791;29;20667;-87
2023/06/24 12:24:20;;;;;;;8.53;7.37;;;24.50;99.90;;;;;;4926581;29;20527;-87
2023/06/24 12:26:58;;;;;;;10.53;9.43;;;25.50;99.90;;;;;;5007054;23;20473;-86
2023/06/24 12:29:26;;;;;;;10.10;8.40;;;24.20;99.90;;;;;;5003326;23;20479;-88
2023/06/24 12:31:58;;;;;;;8.40;7.60;;;26.00;99.90;;;;;;5008722;23;20664;-87
2023/06/24 12:34:30;;;;;;;9.83;8.77;;;24.80;99.90;;;;;;4930546;29;20463;-87
2023/06/24 12:37:15;;;;;;;8.50;7.80;;;24.80;99.90;;;;;;5039498;23;21572;-84
2023/06/24 12:39:52;;;;;;;7.63;6.90;;;24.60;99.90;;;;;;4995470;23;20505;-83
2023/06/24 12:42:22;;;;;;;8.17;7.43;;;25.40;99.90;;;;;;4945898;28;20470;-88
2023/06/24 12:47:34;;;;;;;7.77;7.00;;;25.00;99.90;;;;;;5589318;23;20482;-86
2023/06/24 12:52:45;;;;;;;8.43;7.63;;;25.80;99.90;;;;;;5116547;23;20493;-85
2023/06/24 12:55:14;;;;;;;8.43;7.63;;;26.10;99.90;;;;;;4931051;29;20450;-85
2023/06/24 12:57:43;;;;;;;8.33;7.60;;;25.70;99.90;;;;;;4912524;29;20450;-85
2023/06/24 13:00:16;;;;;;;6.97;6.47;;;25.40;99.90;;;;;;4894928;29;20494;-87
2023/06/24 13:02:46;;;;;;;9.23;8.40;;;24.90;99.90;;;;;;4917912;29;20487;-88
2023/06/24 13:05:17;;;;;;;8.20;7.60;;;25.60;99.90;;;;;;4930940;29;20784;-87
2023/06/24 13:07:52;;;;;;;8.10;7.30;;;25.90;99.90;;;;;;4931967;29;20453;-87
2023/06/24 13:10:26;;;;;;;8.00;7.30;;;25.90;99.90;;;;;;5103244;23;20496;-87
2023/06/24 13:12:53;;;;;;;7.10;6.40;;;25.60;99.90;;;;;;4955219;28;20446;-85
2023/06/24 13:15:23;;;;;;;8.30;7.20;;;24.70;99.90;;;;;;5134572;23;20493;-82
2023/06/24 13:17:53;;;;;;;8.43;7.83;;;25.30;99.90;;;;;;5241667;23;20473;-85
2023/06/24 13:23:07;;;;;;;6.50;6.00;;;25.80;99.90;;;;;;5282629;23;20701;-87
2023/06/24 13:25:37;;;;;;;7.43;6.30;;;26.00;99.90;;;;;;5251401;23;21041;-88
2023/06/24 13:28:22;;;;;;;8.10;6.87;;;27.00;99.90;;;;;;4955550;29;20413;-87
2023/06/24 13:30:56;;;;;;;8.30;7.50;;;27.60;99.90;;;;;;4931297;29;20445;-88
2023/06/24 13:33:29;;;;;;;7.63;6.93;;;26.60;99.90;;;;;;4951376;29;20457;-86
2023/06/24 13:35:59;;;;;;;6.63;6.13;;;27.30;99.90;;;;;;4932399;29;20466;-87
2023/06/24 13:38:26;;;;;;;7.93;7.43;;;25.70;99.90;;;;;;5055104;23;20651;-85
2023/06/24 13:40:55;;;;;;;8.37;6.43;;;26.80;99.90;;;;;;5169420;23;20496;-88
2023/06/24 13:43:23;;;;;;;7.03;6.53;;;26.10;99.90;;;;;;5136219;23;20498;-87
2023/06/24 13:45:54;;;;;;;7.60;6.80;;;26.60;99.90;;;;;;4925370;29;20650;-81
2023/06/24 13:48:21;;;;;;;6.60;6.10;;;27.20;99.90;;;;;;4918417;29;20461;-81
2023/06/24 13:50:48;;;;;;;7.20;6.70;;;26.50;99.90;;;;;;4921753;29;20461;-84
2023/06/24 13:53:16;;;;;;;7.53;6.93;;;26.10;99.90;;;;;;4932461;29;20453;-88
2023/06/24 13:55:46;;;;;;;7.70;7.00;;;26.30;99.90;;;;;;4915409;29;20490;-84
2023/06/24 13:58:17;;;;;;;7.17;6.67;;;26.20;99.90;;;;;;4927991;29;20488;-87
2023/06/24 14:00:45;;;;;;;7.70;7.10;;;26.20;99.90;;;;;;4925533;29;20481;-88
2023/06/24 14:03:14;;;;;;;7.80;7.10;;;27.90;99.90;;;;;;4917694;29;20704;-87
2023/06/24 14:05:42;;;;;;;5.73;5.33;;;27.40;99.90;;;;;;4934334;29;20482;-86
2023/06/24 14:08:09;;;;;;;7.00;6.40;;;26.80;99.90;;;;;;4931050;29;20483;-86
2023/06/24 14:10:36;;;;;;;7.17;6.60;;;26.40;99.90;;;;;;4928239;29;20466;-83
2023/06/24 14:13:05;;;;;;;6.47;5.93;;;27.10;99.90;;;;;;4930352;29;20431;-85
2023/06/24 14:15:34;;;;;;;7.10;6.50;;;26.60;99.90;;;;;;4929271;29;20477;-84
2023/06/24 14:18:04;;;;;;;7.80;6.70;;;27.60;99.90;;;;;;4928931;29;20501;-85
2023/06/24 14:20:33;;;;;;;7.20;6.70;;;26.60;99.90;;;;;;4930210;29;20451;-83
2023/06/24 14:23:08;;;;;;;7.90;7.30;;;27.20;99.90;;;;;;4920203;29;20479;-85
2023/06/24 14:25:37;;;;;;;6.77;6.17;;;27.00;99.90;;;;;;4931104;29;20461;-84
2023/06/24 14:28:05;;;;;;;7.20;6.60;;;27.00;99.90;;;;;;4934779;29;20447;-89
2023/06/24 14:30:34;;;;;;;7.13;6.53;;;26.70;99.90;;;;;;4931150;29;20879;-84
2023/06/24 14:33:04;;;;;;;7.23;6.57;;;25.60;99.90;;;;;;4921741;29;20811;-86
2023/06/24 14:35:31;;;;;;;7.60;7.00;;;26.40;99.90;;;;;;4936436;29;20443;-84
2023/06/24 14:37:58;;;;;;;6.57;6.10;;;27.70;99.90;;;;;;4935294;29;20466;-85
2023/06/24 14:40:28;;;;;;;7.30;6.70;;;26.40;99.90;;;;;;4922425;29;20429;-86
2023/06/24 14:42:55;;;;;;;7.93;7.33;;;26.60;99.90;;;;;;4921928;29;20528;-84
2023/06/24 14:45:28;;;;;;;7.97;7.27;;;26.90;99.90;;;;;;4925022;29;20467;-87
2023/06/24 14:48:00;;;;;;;7.10;6.50;;;26.70;99.90;;;;;;4932613;29;20446;-83
2023/06/24 14:50:31;;;;;;;7.03;6.53;;;26.50;99.90;;;;;;4920035;29;21161;-84
2023/06/24 14:52:59;;;;;;;7.60;7.00;;;25.80;99.90;;;;;;4928272;29;20451;-85
2023/06/24 14:55:27;;;;;;;7.37;6.70;;;25.80;99.90;;;;;;4935823;29;20455;-84
2023/06/24 14:57:54;;;;;;;7.67;7.07;;;25.30;99.90;;;;;;4926570;29;20466;-87
2023/06/24 15:00:21;;;;;;;8.33;7.73;;;25.80;99.90;;;;;;4928864;29;20466;-84
2023/06/24 15:02:48;;;;;;;8.90;7.80;;;25.30;99.90;;;;;;4927714;29;20795;-87
2023/06/24 15:05:15;;;;;;;7.73;7.03;;;26.00;99.90;;;;;;4914132;29;20430;-85
2023/06/24 15:07:43;;;;;;;7.60;7.00;;;25.80;99.90;;;;;;4925343;29;20707;-84
2023/06/24 15:10:10;;;;;;;8.70;7.90;;;25.90;99.90;;;;;;4926780;29;20572;-86
2023/06/24 15:12:38;;;;;;;8.40;7.60;;;26.20;99.90;;;;;;4927163;29;20437;-88
2023/06/24 15:15:08;;;;;;;8.63;7.83;;;25.70;99.90;;;;;;4929783;29;20444;-83
2023/06/24 15:17:40;;;;;;;7.87;7.27;;;26.00;99.90;;;;;;4927547;29;20527;-86
2023/06/24 15:20:10;;;;;;;6.53;6.03;;;26.60;99.90;;;;;;4933878;29;20453;-84
2023/06/24 15:22:40;;;;;;;6.90;6.20;;;25.50;99.90;;;;;;4936941;29;20525;-84
2023/06/24 15:25:10;;;;;;;7.17;6.43;;;25.10;99.90;;;;;;4937113;29;20451;-84
2023/06/24 15:27:37;;;;;;;7.90;7.30;;;24.80;99.90;;;;;;4935303;29;20438;-86
2023/06/24 15:30:14;;;;;;;7.50;6.90;;;24.40;99.90;;;;;;4927587;29;20483;-86
2023/06/24 15:32:46;;;;;;;7.60;6.93;;;24.60;99.90;;;;;;4914815;29;20447;-83
2023/06/24 15:35:15;;;;;;;14.93;7.53;;;24.30;99.90;;;;;;4926195;29;20437;-86